Time;durP1;ratioP1;P1;durP2;ratioP2;P2;SDS_P1;SDS_P2;PMS_P1;PMS_P2;Temp;Humidity;BMP_temperature;BMP_pressure;BME280_temperature;BME280_humidity;BME280_pressure;Samples;Min_cycle;Max_cycle;Signal;HPM_P1;HPM_P2
2022/09/24 00:01:11;;;;;;;;;7.50;7.50;;;;;13.21;62.79;99590.25;5033530;28;8863;-59
2022/09/24 00:03:44;;;;;;;;;6.50;6.50;;;;;13.20;62.74;99591.25;5033301;28;9832;-60
2022/09/24 00:06:13;;;;;;;;;8.50;8.50;;;;;13.20;63.14;99590.41;5032964;28;8840;-59
2022/09/24 00:08:41;;;;;;;;;9.25;9.25;;;;;13.18;62.64;99585.19;5033159;28;8844;-59
2022/09/24 00:11:10;;;;;;;;;8.00;7.00;;;;;13.16;63.20;99576.50;5032966;28;8888;-59
2022/09/24 00:13:38;;;;;;;;;9.00;9.00;;;;;13.15;62.91;99585.47;5033053;28;8817;-59
2022/09/24 00:16:06;;;;;;;;;7.50;6.75;;;;;13.15;63.07;99576.63;5033147;28;9583;-60
2022/09/24 00:18:34;;;;;;;;;9.75;9.25;;;;;13.13;63.10;99581.28;5033338;28;8828;-60
2022/09/24 00:21:02;;;;;;;;;8.00;7.00;;;;;13.14;63.16;99582.97;5033245;28;8824;-60
2022/09/24 00:23:29;;;;;;;;;12.00;11.00;;;;;13.14;63.05;99586.47;5033168;28;8837;-60
2022/09/24 00:28:43;;;;;;;;;3.00;3.00;;;;;13.16;63.19;99584.53;5032513;28;8831;-60
2022/09/24 00:31:11;;;;;;;;;8.00;7.50;;;;;13.19;62.85;99583.34;5033105;28;8836;-59
2022/09/24 00:33:38;;;;;;;;;6.00;6.00;;;;;13.21;62.82;99578.72;5033251;28;8847;-61
2022/09/24 00:36:06;;;;;;;;;9.50;9.00;;;;;13.25;62.84;99585.44;5033072;28;8939;-59
2022/09/24 00:38:33;;;;;;;;;11.50;9.50;;;;;13.28;63.25;99582.50;5032445;28;9527;-60
2022/09/24 00:41:01;;;;;;;;;10.50;8.50;;;;;13.30;62.66;99584.00;5033097;28;8893;-61
2022/09/24 00:43:29;;;;;;;;;8.50;8.50;;;;;13.34;62.72;99576.53;5033062;28;8841;-60
2022/09/24 00:45:57;;;;;;;;;7.50;7.25;;;;;13.35;63.27;99573.72;5033000;28;8829;-60
2022/09/24 00:48:24;;;;;;;;;10.00;9.50;;;;;13.37;62.75;99576.25;5032214;28;8840;-60
2022/09/24 00:50:52;;;;;;;;;8.00;8.00;;;;;13.40;62.37;99581.28;5035914;28;8805;-60
2022/09/24 00:53:20;;;;;;;;;6.75;6.75;;;;;13.39;62.61;99571.59;5039664;28;8829;-60
2022/09/24 00:55:49;;;;;;;;;10.50;10.00;;;;;13.39;62.53;99571.59;5039366;28;9565;-61
2022/09/24 00:58:16;;;;;;;;;7.00;7.00;;;;;13.41;62.93;99577.63;5039287;28;8801;-62
2022/09/24 01:00:44;;;;;;;;;9.75;9.00;;;;;13.40;62.78;99587.50;5037907;28;8813;-61
2022/09/24 01:03:12;;;;;;;;;9.00;9.00;;;;;13.41;62.76;99591.00;5038742;28;8883;-59
2022/09/24 01:05:40;;;;;;;;;10.50;10.00;;;;;13.40;62.19;99581.28;5038151;28;8844;-60
2022/09/24 01:08:08;;;;;;;;;13.00;11.00;;;;;13.39;62.79;99584.97;5037698;28;8833;-59
2022/09/24 01:10:48;;;;;;;;;10.00;9.50;;;;;13.37;63.06;99576.25;5037279;28;8856;-61
2022/09/24 01:13:15;;;;;;;;;9.50;9.50;;;;;13.35;62.79;99583.59;5037459;28;8837;-59
2022/09/24 01:15:43;;;;;;;;;9.00;7.75;;;;;13.35;62.91;99584.41;5036707;28;8820;-59
2022/09/24 01:18:11;;;;;;;;;12.00;11.50;;;;;13.34;62.94;99577.38;5037615;28;8853;-59
2022/09/24 01:20:39;;;;;;;;;11.50;9.50;;;;;13.35;63.09;99580.91;5037986;28;8913;-59
2022/09/24 01:23:06;;;;;;;;;6.50;6.50;;;;;13.35;63.01;99578.25;5037758;28;8829;-59
2022/09/24 01:25:35;;;;;;;;;7.00;7.00;;;;;13.38;63.06;99580.59;5037935;28;8909;-61
2022/09/24 01:28:03;;;;;;;;;9.25;8.00;;;;;13.41;62.98;99588.31;5037440;28;8828;-61
2022/09/24 01:30:33;;;;;;;;;6.25;5.00;;;;;13.43;63.20;99581.00;5037255;28;8913;-60
2022/09/24 01:33:02;;;;;;;;;10.50;10.00;;;;;13.46;62.94;99583.38;5037243;28;8865;-61
2022/09/24 01:35:29;;;;;;;;;9.25;9.00;;;;;13.48;62.76;99573.38;5036920;28;8909;-59
2022/09/24 01:37:57;;;;;;;;;10.00;10.00;;;;;13.49;63.21;99575.03;5037931;28;8841;-59
2022/09/24 01:40:25;;;;;;;;;9.75;9.50;;;;;13.50;63.04;99569.56;5036957;28;8841;-60
2022/09/24 01:42:53;;;;;;;;;9.00;8.00;;;;;13.52;62.72;99577.44;5036923;28;8870;-59
2022/09/24 01:45:21;;;;;;;;;9.00;9.00;;;;;13.52;62.63;99569.41;5037128;28;8821;-60
2022/09/24 01:47:48;;;;;;;;;12.00;12.00;;;;;13.52;62.61;99570.25;5037390;28;8840;-59
2022/09/24 01:50:16;;;;;;;;;12.00;11.50;;;;;13.49;63.00;99573.22;5036789;28;8825;-60
2022/09/24 01:52:44;;;;;;;;;8.50;8.50;;;;;13.47;63.46;99567.19;5037063;28;8921;-59
2022/09/24 01:55:12;;;;;;;;;6.50;4.00;;;;;13.47;63.80;99558.31;5036714;28;8840;-60
2022/09/24 01:57:40;;;;;;;;;10.50;10.50;;;;;13.46;63.54;99554.81;5037141;28;8844;-60
2022/09/24 02:00:08;;;;;;;;;5.50;5.50;;;;;13.46;63.64;99548.59;5037290;28;8841;-59
2022/09/24 02:02:36;;;;;;;;;11.00;10.00;;;;;13.49;63.91;99545.63;5034341;28;8825;-61
2022/09/24 02:05:04;;;;;;;;;8.25;7.25;;;;;13.51;63.49;99544.47;5033627;28;8825;-60
2022/09/24 02:07:33;;;;;;;;;9.00;7.00;;;;;13.53;63.13;99539.00;5034288;28;8922;-59
2022/09/24 02:10:00;;;;;;;;;12.25;9.75;;;;;13.54;63.49;99540.66;5034518;28;8913;-60
2022/09/24 02:12:28;;;;;;;;;10.00;10.00;;;;;13.56;62.99;99538.69;5034501;28;8917;-60
2022/09/24 02:14:56;;;;;;;;;11.00;10.00;;;;;13.59;63.26;99538.41;5034380;28;9494;-60
2022/09/24 02:17:24;;;;;;;;;4.00;4.00;;;;;13.61;63.02;99537.25;5034485;28;8929;-59
2022/09/24 02:19:52;;;;;;;;;7.00;7.00;;;;;13.64;63.57;99536.94;5034690;28;8885;-60
2022/09/24 02:22:19;;;;;;;;;9.50;9.25;;;;;13.67;63.12;99541.16;5034557;28;8857;-60
2022/09/24 02:24:47;;;;;;;;;9.75;9.00;;;;;13.68;62.68;99537.47;5034196;28;8906;-60
2022/09/24 02:27:15;;;;;;;;;11.50;11.50;;;;;13.67;62.90;99539.31;5034172;28;8825;-59
2022/09/24 02:29:43;;;;;;;;;12.00;10.50;;;;;13.66;63.17;99545.66;5034370;28;8919;-61
2022/09/24 02:32:11;;;;;;;;;10.00;9.25;;;;;13.63;63.46;99531.72;5034354;28;8905;-60
2022/09/24 02:34:37;;;;;;;;;9.75;8.50;;;;;13.59;63.50;99536.53;5033712;28;8836;-59
2022/09/24 02:37:05;;;;;;;;;10.25;9.50;;;;;13.57;63.44;99540.34;5033896;28;8856;-58
2022/09/24 02:39:33;;;;;;;;;10.00;8.25;;;;;13.53;63.66;99537.13;5033752;28;8837;-60
2022/09/24 02:42:01;;;;;;;;;6.50;6.00;;;;;13.49;63.62;99533.09;5033729;28;8833;-61
2022/09/24 02:44:29;;;;;;;;;12.25;10.00;;;;;13.47;63.57;99535.09;5033397;28;8833;-59
2022/09/24 02:46:57;;;;;;;;;11.00;10.00;;;;;13.44;64.18;99534.53;5033753;28;8821;-60
2022/09/24 02:49:25;;;;;;;;;11.50;11.50;;;;;13.41;64.11;99529.47;5033789;28;8843;-59
2022/09/24 02:51:52;;;;;;;;;8.75;8.75;;;;;13.39;63.73;99537.69;5034010;28;9751;-60
2022/09/24 02:54:20;;;;;;;;;8.00;7.50;;;;;13.37;63.59;99526.25;5034388;28;9506;-60
2022/09/24 02:56:48;;;;;;;;;11.00;10.50;;;;;13.36;63.95;99523.75;5033997;28;8833;-60
2022/09/24 02:59:16;;;;;;;;;9.75;7.00;;;;;13.34;64.47;99521.22;5033958;28;8917;-60
2022/09/24 03:01:44;;;;;;;;;8.50;8.50;;;;;13.34;64.27;99533.75;5033531;28;8833;-60
2022/09/24 03:04:12;;;;;;;;;9.00;9.00;;;;;13.33;63.73;99521.38;5033570;28;8933;-59
2022/09/24 03:06:39;;;;;;;;;9.25;9.25;;;;;13.32;64.24;99530.38;5034233;28;8902;-59
2022/09/24 03:09:07;;;;;;;;;9.75;9.75;;;;;13.30;64.22;99519.00;5034449;28;8922;-59
2022/09/24 03:11:35;;;;;;;;;8.50;8.25;;;;;13.31;64.75;99523.34;5034061;28;8899;-60
2022/09/24 03:14:02;;;;;;;;;9.25;9.25;;;;;13.30;64.10;99527.03;5034093;28;8837;-59
2022/09/24 03:16:30;;;;;;;;;11.50;10.00;;;;;13.29;64.40;99525.34;5034651;28;9494;-61
2022/09/24 03:18:58;;;;;;;;;9.25;9.25;;;;;13.28;64.40;99529.00;5034630;28;8867;-60
2022/09/24 03:21:26;;;;;;;;;10.00;10.00;;;;;13.27;64.45;99524.63;5034836;28;8820;-59
2022/09/24 03:23:53;;;;;;;;;9.25;9.25;;;;;13.26;64.57;99526.47;5033612;28;8933;-60
2022/09/24 03:26:21;;;;;;;;;10.00;10.00;;;;;13.27;64.20;99527.31;5034315;28;8833;-59
2022/09/24 03:28:48;;;;;;;;;10.00;9.75;;;;;13.26;64.50;99523.81;5033984;28;8923;-60
2022/09/24 03:31:15;;;;;;;;;12.75;11.50;;;;;13.27;64.55;99516.59;5034026;28;8821;-60
2022/09/24 03:33:43;;;;;;;;;15.00;12.25;;;;;13.27;64.55;99524.63;5033908;28;8825;-59
2022/09/24 03:36:11;;;;;;;;;9.75;9.50;;;;;13.26;64.21;99520.28;5034092;28;8913;-61
2022/09/24 03:38:38;;;;;;;;;12.50;11.00;;;;;13.26;64.46;99509.59;5034014;28;8874;-60
2022/09/24 03:41:06;;;;;;;;;10.00;9.25;;;;;13.26;64.12;99510.44;5034307;28;8841;-59
2022/09/24 03:43:33;;;;;;;;;9.50;9.50;;;;;13.25;64.25;99507.91;5033831;28;8813;-59
2022/09/24 03:46:01;;;;;;;;;12.00;11.50;;;;;13.25;64.53;99492.72;5033528;28;8841;-61
2022/09/24 03:48:29;;;;;;;;;9.25;9.00;;;;;13.25;64.38;99499.88;5034201;28;8839;-59
2022/09/24 03:50:57;;;;;;;;;10.00;9.00;;;;;13.23;64.26;99501.88;5034026;28;8821;-59
2022/09/24 03:53:24;;;;;;;;;11.00;9.75;;;;;13.21;65.02;99504.69;5033742;28;8817;-60
2022/09/24 03:55:52;;;;;;;;;9.50;9.25;;;;;13.20;64.93;99502.19;5033526;28;8813;-60
2022/09/24 03:58:20;;;;;;;;;10.00;10.00;;;;;13.17;64.84;99507.81;5033908;28;8824;-60
2022/09/24 04:00:48;;;;;;;;;9.00;9.00;;;;;13.18;64.62;99501.47;5033491;28;8841;-60
2022/09/24 04:03:15;;;;;;;;;10.50;10.50;;;;;13.17;64.74;99506.00;5033446;28;8821;-59
2022/09/24 04:05:44;;;;;;;;;3.75;3.25;;;;;13.18;64.74;99498.78;5033429;28;8837;-60
2022/09/24 04:08:11;;;;;;;;;7.50;7.00;;;;;13.19;64.69;99498.66;5033266;28;8894;-60
2022/09/24 04:10:39;;;;;;;;;6.50;6.50;;;;;13.18;64.99;99502.31;5033450;28;8852;-60
2022/09/24 04:13:07;;;;;;;;;10.00;9.00;;;;;13.18;64.93;99494.28;5032934;28;8856;-59
2022/09/24 04:15:35;;;;;;;;;9.75;9.75;;;;;13.21;64.38;99490.50;5033397;28;8813;-60
2022/09/24 04:18:03;;;;;;;;;6.00;4.50;;;;;13.22;64.75;99492.16;5033280;28;8921;-60
2022/09/24 04:20:31;;;;;;;;;12.00;12.00;;;;;13.25;65.13;99491.84;5033278;28;8821;-60
2022/09/24 04:22:59;;;;;;;;;10.00;9.25;;;;;13.27;64.76;99495.22;5033031;28;8821;-59
2022/09/24 04:25:27;;;;;;;;;9.75;9.00;;;;;13.27;65.05;99487.19;5032397;28;8852;-60
2022/09/24 04:27:55;;;;;;;;;10.50;9.75;;;;;13.26;64.52;99482.84;5033579;28;9507;-59
2022/09/24 04:30:23;;;;;;;;;12.00;12.00;;;;;13.26;65.26;99488.19;5033324;28;8895;-59
2022/09/24 04:32:51;;;;;;;;;8.50;8.50;;;;;13.24;65.12;99490.19;5032641;28;8845;-60
2022/09/24 04:35:19;;;;;;;;;12.00;11.50;;;;;13.24;65.07;99492.84;5033103;28;8911;-60
2022/09/24 04:37:46;;;;;;;;;11.00;10.00;;;;;13.22;65.15;99484.16;5033210;28;8921;-61
2022/09/24 04:40:14;;;;;;;;;6.75;5.50;;;;;13.21;65.08;99485.13;5033378;28;8901;-60
2022/09/24 04:42:43;;;;;;;;;7.00;7.00;;;;;13.19;65.01;99481.75;5033006;28;8943;-60
2022/09/24 04:45:11;;;;;;;;;12.00;9.75;;;;;13.18;65.13;99482.75;5033132;28;9525;-60
2022/09/24 04:47:40;;;;;;;;;12.25;11.00;;;;;13.18;65.15;99488.09;5032935;28;8912;-60
2022/09/24 04:50:08;;;;;;;;;4.00;3.25;;;;;13.18;65.32;99482.75;5032651;28;9497;-61
2022/09/24 04:52:36;;;;;;;;;10.50;9.25;;;;;13.18;65.44;99483.59;5032613;28;8906;-60
2022/09/24 04:55:03;;;;;;;;;10.75;9.00;;;;;13.19;65.64;99481.75;5032720;28;8837;-60
2022/09/24 04:57:35;;;;;;;;;14.50;12.25;;;;;13.20;65.32;99478.94;5032574;28;8848;-60
2022/09/24 05:00:03;;;;;;;;;6.50;6.50;;;;;13.20;65.65;99472.78;5032888;28;8840;-60
2022/09/24 05:02:30;;;;;;;;;10.00;8.75;;;;;13.19;65.36;99466.56;5032104;28;8886;-61
2022/09/24 05:04:58;;;;;;;;;12.75;10.50;;;;;13.19;65.13;99471.91;5032347;28;8840;-61
2022/09/24 05:07:25;;;;;;;;;10.00;9.25;;;;;13.18;65.70;99480.94;5032645;28;8813;-59
2022/09/24 05:09:53;;;;;;;;;13.75;12.00;;;;;13.18;65.74;99477.41;5032778;28;9617;-60
2022/09/24 05:12:21;;;;;;;;;10.50;10.00;;;;;13.17;65.56;99479.25;5032557;28;8836;-59
2022/09/24 05:14:49;;;;;;;;;10.00;10.00;;;;;13.17;65.47;99473.06;5032823;28;8821;-62
2022/09/24 05:17:16;;;;;;;;;14.00;12.50;;;;;13.16;65.32;99474.03;5032669;28;8841;-60
2022/09/24 05:19:44;;;;;;;;;13.00;12.00;;;;;13.16;65.41;99466.88;5032336;28;8929;-61
2022/09/24 05:22:11;;;;;;;;;13.50;13.00;;;;;13.18;65.39;99474.72;5032696;28;8841;-58
2022/09/24 05:24:39;;;;;;;;;10.50;10.00;;;;;13.19;65.16;99476.41;5032440;28;8924;-62
2022/09/24 05:27:09;;;;;;;;;10.00;10.00;;;;;13.20;65.50;99476.25;5032128;28;8901;-60
2022/09/24 05:29:37;;;;;;;;;12.00;10.50;;;;;13.21;65.34;99475.28;5032650;28;8817;-61
2022/09/24 05:32:05;;;;;;;;;7.00;7.00;;;;;13.24;65.19;99479.47;5032022;28;8880;-59
2022/09/24 05:34:32;;;;;;;;;10.00;10.00;;;;;13.25;65.56;99484.69;5032187;28;8933;-62
2022/09/24 05:37:01;;;;;;;;;11.00;10.00;;;;;13.26;65.63;99475.66;5032697;28;8817;-61
2022/09/24 05:39:28;;;;;;;;;13.00;12.50;;;;;13.26;65.68;99481.03;5035847;28;8884;-60
2022/09/24 05:42:01;;;;;;;;;16.50;13.00;;;;;13.27;65.31;99479.16;5035601;28;8810;-60
2022/09/24 05:44:29;;;;;;;;;10.00;9.75;;;;;13.29;65.90;99471.84;5035644;28;8905;-62
2022/09/24 05:46:57;;;;;;;;;12.00;11.00;;;;;13.31;65.03;99473.41;5035405;28;8848;-60
2022/09/24 05:49:25;;;;;;;;;19.00;17.00;;;;;13.33;65.63;99474.09;5035368;28;8893;-61
2022/09/24 05:51:53;;;;;;;;;12.75;12.50;;;;;13.32;65.80;99477.75;5035156;28;8881;-59
2022/09/24 05:54:21;;;;;;;;;12.25;12.25;;;;;13.33;65.78;99478.56;5035363;28;8925;-59
2022/09/24 05:56:48;;;;;;;;;11.25;10.25;;;;;13.34;65.33;99481.09;5035312;28;8864;-61
2022/09/24 05:59:16;;;;;;;;;11.00;10.00;;;;;13.34;65.34;99475.75;5035236;28;8852;-59
2022/09/24 06:01:44;;;;;;;;;18.00;17.00;;;;;13.34;65.53;99480.25;5035151;28;9473;-59
2022/09/24 06:04:12;;;;;;;;;16.25;14.75;;;;;13.35;65.83;99476.63;5035423;28;8860;-59
2022/09/24 06:06:40;;;;;;;;;18.50;18.25;;;;;13.37;65.55;99474.63;5035331;28;8833;-60
2022/09/24 06:09:08;;;;;;;;;18.50;17.75;;;;;13.36;65.38;99479.13;5034354;28;8901;-60
2022/09/24 06:11:37;;;;;;;;;15.50;15.50;;;;;13.38;65.41;99476.31;5032092;28;8845;-60
2022/09/24 06:14:08;;;;;;;;;11.25;11.00;;;;;13.39;65.71;99469.94;5032888;28;8824;-60
2022/09/24 06:16:36;;;;;;;;;9.75;9.25;;;;;13.42;65.79;99466.97;5032998;28;8825;-59
2022/09/24 06:19:04;;;;;;;;;12.00;11.00;;;;;13.46;65.16;99476.38;5033224;28;8837;-60
2022/09/24 06:21:32;;;;;;;;;9.75;9.75;;;;;13.51;65.21;99476.78;5032832;28;8821;-60
2022/09/24 06:23:59;;;;;;;;;13.00;12.00;;;;;13.53;65.21;99482.81;5032171;28;8853;-59
2022/09/24 06:26:27;;;;;;;;;12.50;11.50;;;;;13.56;65.88;99479.81;5032891;28;8856;-60
2022/09/24 06:28:55;;;;;;;;;12.50;12.00;;;;;13.57;65.38;99478.81;5032419;28;8945;-60
2022/09/24 06:31:30;;;;;;;;;10.00;10.00;;;;;13.58;65.44;99484.03;5032024;28;8833;-60
2022/09/24 06:33:59;;;;;;;;;12.25;7.00;;;;;13.58;65.49;99481.34;5031969;28;8929;-59
2022/09/24 06:36:27;;;;;;;;;12.50;12.50;;;;;13.61;65.52;99482.88;5031674;28;8851;-60
2022/09/24 06:38:57;;;;;;;;;11.00;11.00;;;;;13.61;65.80;99482.88;5032261;28;8817;-60
2022/09/24 06:41:25;;;;;;;;;8.00;8.00;;;;;13.62;65.39;99482.75;5033407;28;8853;-60
2022/09/24 06:43:53;;;;;;;;;12.75;11.50;;;;;13.64;65.43;99479.91;5033530;28;8848;-60
2022/09/24 06:46:21;;;;;;;;;12.00;10.00;;;;;13.66;65.44;99494.00;5033623;28;8872;-59
2022/09/24 06:48:49;;;;;;;;;13.50;13.00;;;;;13.69;64.88;99486.50;5033300;28;8909;-60
2022/09/24 06:51:18;;;;;;;;;11.00;10.50;;;;;13.74;65.10;99488.72;5033168;28;8844;-61
2022/09/24 06:53:45;;;;;;;;;12.00;11.50;;;;;13.78;64.96;99482.91;5033034;28;8974;-59
2022/09/24 06:56:13;;;;;;;;;12.25;12.25;;;;;13.81;65.14;99490.59;5032594;28;8860;-59
2022/09/24 06:58:41;;;;;;;;;13.00;10.50;;;;;13.86;64.94;99492.81;5033162;28;8964;-60
2022/09/24 07:01:09;;;;;;;;;10.00;10.00;;;;;13.90;65.16;99491.53;5032562;28;8825;-59
2022/09/24 07:03:38;;;;;;;;;13.00;13.00;;;;;13.95;65.30;99494.56;5033107;28;8825;-59
2022/09/24 07:06:06;;;;;;;;;15.00;12.75;;;;;14.00;64.86;99500.31;5033287;28;8841;-60
2022/09/24 07:08:33;;;;;;;;;15.75;15.25;;;;;14.07;64.80;99491.53;5033695;28;8979;-59
2022/09/24 07:11:01;;;;;;;;;11.00;11.00;;;;;14.12;64.58;99499.09;5031818;28;8967;-59
2022/09/24 07:13:29;;;;;;;;;14.25;13.50;;;;;14.19;64.29;99498.31;5031884;28;8828;-61
2022/09/24 07:15:57;;;;;;;;;20.50;17.75;;;;;14.27;64.25;99502.91;5031323;28;8813;-59
2022/09/24 07:18:25;;;;;;;;;17.50;15.50;;;;;14.36;64.86;99499.31;5031600;28;8845;-61
2022/09/24 07:20:53;;;;;;;;;20.50;19.00;;;;;14.43;63.87;99505.72;5031242;28;8890;-59
2022/09/24 07:23:21;;;;;;;;;17.50;15.00;;;;;14.51;63.71;99505.75;5030695;28;8926;-59
2022/09/24 07:25:50;;;;;;;;;18.00;16.00;;;;;14.56;63.94;99508.81;5029624;28;9021;-59
2022/09/24 07:28:18;;;;;;;;;13.50;12.50;;;;;14.62;63.88;99506.34;5030369;28;8841;-60
2022/09/24 07:30:46;;;;;;;;;12.25;12.00;;;;;14.68;63.39;99513.75;5030009;28;8879;-59
2022/09/24 07:33:14;;;;;;;;;23.00;20.50;;;;;14.74;63.66;99517.63;5029925;28;8856;-60
2022/09/24 07:35:42;;;;;;;;;20.00;18.75;;;;;14.79;63.55;99515.34;5029740;28;8837;-59
2022/09/24 07:38:10;;;;;;;;;15.75;15.50;;;;;14.87;63.53;99518.06;5029485;28;8837;-59
2022/09/24 07:40:39;;;;;;;;;18.00;16.00;;;;;14.94;63.77;99522.59;5030193;28;8891;-60
2022/09/24 07:43:12;;;;;;;;;16.00;15.00;;;;;15.03;63.45;99523.50;5030480;28;8971;-60
2022/09/24 07:45:40;;;;;;;;;13.75;13.00;;;;;15.09;63.39;99529.03;5030625;28;8817;-60
2022/09/24 07:48:08;;;;;;;;;16.00;15.75;;;;;15.17;63.25;99525.59;5031428;28;8861;-59
2022/09/24 07:50:37;;;;;;;;;16.00;15.75;;;;;15.20;63.46;99533.28;5030889;28;8829;-59
2022/09/24 07:53:06;;;;;;;;;20.25;18.25;;;;;15.22;63.38;99533.97;5031621;28;8844;-59
2022/09/24 07:55:38;;;;;;;;;18.75;16.50;;;;;15.25;63.73;99528.28;5030930;28;8858;-59
2022/09/24 07:58:06;;;;;;;;;13.75;10.75;;;;;15.29;63.41;99532.31;5031900;28;8845;-60
2022/09/24 08:00:33;;;;;;;;;21.00;18.50;;;;;15.38;63.67;99534.06;5030533;28;8859;-60
2022/09/24 08:03:01;;;;;;;;;19.00;16.75;;;;;15.44;63.20;99528.91;5030609;28;9661;-59
2022/09/24 08:05:29;;;;;;;;;18.75;17.00;;;;;15.52;63.17;99526.25;5029551;28;9001;-59
2022/09/24 08:07:57;;;;;;;;;15.75;15.25;;;;;15.65;62.78;99528.44;5028115;28;8853;-60
2022/09/24 08:10:25;;;;;;;;;17.50;15.00;;;;;15.79;62.97;99528.63;5029321;28;8857;-59
2022/09/24 08:12:53;;;;;;;;;22.75;22.00;;;;;15.93;62.29;99521.81;5029358;28;8852;-59
2022/09/24 08:15:22;;;;;;;;;18.25;16.00;;;;;16.09;62.56;99519.13;5029512;28;8821;-59
2022/09/24 08:17:50;;;;;;;;;20.25;19.00;;;;;16.28;62.05;99525.00;5030200;28;8988;-60
2022/09/24 08:20:18;;;;;;;;;19.00;17.25;;;;;16.45;62.13;99530.25;5030863;28;8905;-59
2022/09/24 08:22:46;;;;;;;;;17.50;15.75;;;;;16.61;61.29;99522.16;5031006;28;8852;-60
2022/09/24 08:25:14;;;;;;;;;27.00;24.25;;;;;16.77;61.25;99527.50;5030629;28;8845;-60
2022/09/24 08:27:42;;;;;;;;;18.50;17.25;;;;;16.94;60.50;99521.06;5031364;28;8855;-60
2022/09/24 08:30:10;;;;;;;;;15.75;15.75;;;;;17.08;60.89;99525.72;5030733;28;8905;-61
2022/09/24 08:32:38;;;;;;;;;26.00;21.50;;;;;17.25;60.64;99521.97;5031408;28;8824;-60
2022/09/24 08:35:07;;;;;;;;;19.25;17.25;;;;;17.34;60.28;99520.94;5030850;28;8840;-61
2022/09/24 08:37:35;;;;;;;;;21.50;20.00;;;;;17.47;60.47;99529.28;5031615;28;8840;-60
2022/09/24 08:40:03;;;;;;;;;20.75;19.75;;;;;17.59;60.13;99524.34;5030001;28;8928;-59
2022/09/24 08:42:33;;;;;;;;;23.50;22.50;;;;;17.70;59.59;99523.97;5030148;28;8893;-61
2022/09/24 08:47:47;;;;;;;;;23.75;21.25;;;;;17.93;59.84;99527.53;5030554;28;8891;-60
2022/09/24 08:50:16;;;;;;;;;16.00;15.00;;;;;18.08;59.79;99525.75;5030389;28;8848;-60
2022/09/24 08:52:44;;;;;;;;;18.75;16.50;;;;;18.26;58.69;99521.72;5030062;28;8833;-60
2022/09/24 08:55:12;;;;;;;;;19.00;17.25;;;;;18.39;59.09;99524.69;5030492;28;8821;-60
2022/09/24 08:57:40;;;;;;;;;19.50;18.75;;;;;18.46;58.59;99527.47;5030626;28;9897;-61
2022/09/24 09:00:08;;;;;;;;;19.80;18.00;;;;;18.46;58.74;99525.63;5030018;28;8825;-60
2022/09/24 09:02:36;;;;;;;;;18.40;17.60;;;;;18.45;58.73;99528.50;5029595;28;8833;-61
2022/09/24 09:05:05;;;;;;;;;23.20;19.80;;;;;18.47;59.24;99534.56;5029767;28;8829;-60
2022/09/24 09:07:33;;;;;;;;;21.00;20.60;;;;;18.56;58.99;99528.06;5029727;28;8867;-59
2022/09/24 09:10:02;;;;;;;;;18.80;18.80;;;;;18.66;59.25;99532.19;5029459;28;8832;-59
2022/09/24 09:12:30;;;;;;;;;14.80;14.60;;;;;18.79;58.92;99534.25;5032516;28;8955;-60
2022/09/24 09:14:58;;;;;;;;;19.20;19.00;;;;;18.92;58.35;99537.16;5032752;28;8837;-62
2022/09/24 09:17:26;;;;;;;;;20.00;16.00;;;;;19.01;57.96;99525.22;5032546;28;8831;-60
2022/09/24 09:19:54;;;;;;;;;19.00;19.00;;;;;19.09;58.41;99528.69;5032922;28;8944;-59
2022/09/24 09:22:22;;;;;;;;;19.60;16.60;;;;;19.17;58.04;99522.34;5032719;28;8852;-60
2022/09/24 09:24:50;;;;;;;;;18.20;16.00;;;;;19.23;58.28;99536.00;5033240;28;8829;-60
2022/09/24 09:27:18;;;;;;;;;22.00;21.00;;;;;19.29;58.32;99529.84;5031932;28;8872;-59
2022/09/24 09:29:48;;;;;;;;;19.20;17.00;;;;;19.34;58.14;99530.09;5033453;28;8817;-60
2022/09/24 09:32:16;;;;;;;;;18.40;16.20;;;;;19.36;58.06;99529.94;5033460;28;8983;-59
2022/09/24 09:34:44;;;;;;;;;21.60;18.00;;;;;19.34;57.73;99532.81;5033574;28;8987;-60
2022/09/24 09:37:11;;;;;;;;;15.00;13.60;;;;;19.33;58.02;99532.97;5033794;28;8982;-59
2022/09/24 09:39:40;;;;;;;;;14.20;14.00;;;;;19.32;58.14;99534.88;5033993;28;8840;-60
2022/09/24 09:42:09;;;;;;;;;22.00;19.20;;;;;19.36;58.34;99525.34;5033549;28;8865;-60
2022/09/24 09:44:37;;;;;;;;;16.40;13.00;;;;;19.34;58.18;99532.81;5033963;28;8897;-60
2022/09/24 09:47:05;;;;;;;;;13.00;12.40;;;;;19.31;58.45;99532.34;5033987;28;8855;-60
2022/09/24 09:49:33;;;;;;;;;17.00;17.00;;;;;19.24;58.76;99537.66;5033579;28;8851;-59
2022/09/24 09:52:02;;;;;;;;;19.00;18.20;;;;;19.10;59.09;99535.75;5033872;28;8919;-59
2022/09/24 09:54:30;;;;;;;;;19.00;17.80;;;;;18.96;59.54;99531.19;5033781;28;8847;-59
2022/09/24 09:56:58;;;;;;;;;17.20;16.00;;;;;18.86;59.27;99532.47;5032665;28;8845;-60
2022/09/24 09:59:26;;;;;;;;;15.60;15.00;;;;;18.79;59.49;99532.41;5032983;28;8841;-59
2022/09/24 10:01:56;;;;;;;;;16.80;15.20;;;;;18.80;59.71;99538.59;5031911;28;8845;-60
2022/09/24 10:04:24;;;;;;;;;16.80;14.40;;;;;18.89;59.23;99530.25;5032790;28;8829;-60
2022/09/24 10:06:52;;;;;;;;;16.00;14.60;;;;;19.03;58.87;99532.13;5032869;28;8836;-59
2022/09/24 10:09:20;;;;;;;;;15.60;14.60;;;;;19.18;59.06;99527.56;5032145;28;8852;-60
2022/09/24 10:11:48;;;;;;;;;17.40;16.60;;;;;19.34;58.61;99524.69;5032277;28;8869;-60
2022/09/24 10:14:17;;;;;;;;;21.00;18.60;;;;;19.50;58.46;99511.00;5031823;28;8967;-60
2022/09/24 10:16:45;;;;;;;;;15.20;15.20;;;;;19.66;58.11;99516.16;5031750;28;8903;-60
2022/09/24 10:19:13;;;;;;;;;14.20;13.20;;;;;19.79;57.49;99518.22;5031517;28;8851;-59
2022/09/24 10:21:41;;;;;;;;;15.60;14.20;;;;;19.84;57.86;99516.59;5031075;28;9543;-59
2022/09/24 10:24:10;;;;;;;;;14.60;14.60;;;;;19.90;57.58;99510.44;5029917;28;9610;-59
2022/09/24 10:26:38;;;;;;;;;17.40;16.60;;;;;19.92;57.32;99510.22;5031368;28;8856;-60
2022/09/24 10:31:57;;;;;;;;;17.20;16.60;;;;;19.80;58.09;99517.19;5030907;28;8872;-61
2022/09/24 10:34:25;;;;;;;;;17.20;16.00;;;;;19.66;58.12;99516.16;5031488;28;9585;-60
2022/09/24 10:36:53;;;;;;;;;16.20;14.40;;;;;19.51;58.14;99514.53;5032583;28;8863;-61
2022/09/24 10:39:21;;;;;;;;;15.80;13.60;;;;;19.39;58.92;99521.44;5033164;28;8887;-60
2022/09/24 10:41:49;;;;;;;;;12.20;12.20;;;;;19.34;58.66;99513.09;5033005;28;8925;-60
2022/09/24 10:44:17;;;;;;;;;15.60;12.00;;;;;19.26;59.32;99524.81;5032778;28;9840;-61
2022/09/24 10:46:45;;;;;;;;;17.80;16.00;;;;;19.16;59.44;99523.38;5032632;28;8856;-61
2022/09/24 10:49:13;;;;;;;;;18.00;17.00;;;;;19.05;59.76;99524.69;5031929;28;8837;-61
2022/09/24 10:51:41;;;;;;;;;10.40;9.20;;;;;19.00;59.38;99524.41;5031583;28;8863;-60
2022/09/24 10:54:09;;;;;;;;;13.40;12.80;;;;;18.95;59.44;99521.44;5031439;28;8905;-61
2022/09/24 10:56:39;;;;;;;;;17.60;16.20;;;;;18.89;59.62;99527.56;5031580;28;8837;-59
2022/09/24 10:59:12;;;;;;;;;12.60;11.00;;;;;18.83;60.03;99527.47;5031065;28;8900;-59
2022/09/24 11:01:41;;;;;;;;;12.00;11.40;;;;;18.77;60.06;99531.75;5031851;28;8959;-60
2022/09/24 11:04:08;;;;;;;;;12.00;12.00;;;;;18.70;59.96;99528.09;5032186;28;9572;-59
2022/09/24 11:06:36;;;;;;;;;15.20;14.00;;;;;18.62;60.22;99536.28;5031431;28;8840;-60
2022/09/24 11:09:05;;;;;;;;;16.00;15.60;;;;;18.53;60.47;99526.56;5031736;28;8963;-59
2022/09/24 11:11:33;;;;;;;;;17.20;14.80;;;;;18.45;60.52;99533.91;5031493;28;8994;-60
2022/09/24 11:14:00;;;;;;;;;12.00;11.80;;;;;18.39;60.75;99532.78;5030841;28;8825;-59
2022/09/24 11:16:29;;;;;;;;;17.20;16.20;;;;;18.33;60.71;99530.81;5031011;28;8879;-59
2022/09/24 11:18:57;;;;;;;;;16.20;15.20;;;;;18.27;61.13;99531.47;5030877;28;8832;-59
2022/09/24 11:21:25;;;;;;;;;16.40;14.20;;;;;18.20;60.96;99525.13;5029553;28;8837;-59
2022/09/24 11:23:53;;;;;;;;;15.40;13.80;;;;;18.12;61.60;99527.91;5030062;28;8832;-59
2022/09/24 11:26:21;;;;;;;;;9.80;7.80;;;;;18.03;61.95;99523.59;5030770;28;8920;-59
2022/09/24 11:28:49;;;;;;;;;16.00;15.60;;;;;17.96;61.65;99528.00;5031171;28;8913;-60
2022/09/24 11:31:17;;;;;;;;;16.00;14.40;;;;;17.89;61.60;99532.44;5031187;28;9793;-60
2022/09/24 11:33:46;;;;;;;;;12.20;11.60;;;;;17.80;62.48;99529.97;5030740;28;8829;-63
2022/09/24 11:36:14;;;;;;;;;14.50;14.00;;;;;17.71;62.70;99534.59;5030932;28;8928;-60
2022/09/24 11:38:42;;;;;;;;;16.80;14.80;;;;;17.60;62.34;99532.28;5031447;28;9528;-60
2022/09/24 11:41:10;;;;;;;;;13.60;12.00;;;;;17.50;62.73;99536.19;5031137;28;8861;-60